Time;durP1;ratioP1;P1;durP2;ratioP2;P2;SDS_P1;SDS_P2;PMS_P1;PMS_P2;Temp;Humidity;BMP_temperature;BMP_pressure;BME280_temperature;BME280_humidity;BME280_pressure;Samples;Min_cycle;Max_cycle;Signal;HPM_P1;HPM_P2
2022/08/16 00:00:29;;;;;;;5.18;3.50;;;27.30;47.80;26.20;100227.00;;;;5072242;28;20050;-67
2022/08/16 00:03:16;;;;;;;4.40;3.05;;;27.30;47.80;26.20;100229.00;;;;5063591;28;20067;-67
2022/08/16 00:06:02;;;;;;;4.45;3.42;;;27.30;47.90;26.20;100229.00;;;;5053634;28;20043;-67
2022/08/16 00:08:49;;;;;;;6.95;3.40;;;27.20;47.90;26.20;100213.00;;;;5089153;28;20459;-67
2022/08/16 00:11:35;;;;;;;3.90;3.35;;;27.20;48.00;26.20;100212.00;;;;5076445;28;20397;-67
2022/08/16 00:14:26;;;;;;;4.43;3.70;;;27.30;48.10;26.20;100222.00;;;;5080188;28;20040;-67
2022/08/16 00:17:12;;;;;;;6.22;3.40;;;27.30;48.20;26.20;100216.00;;;;5081201;28;20050;-67
2022/08/16 00:19:58;;;;;;;4.75;3.40;;;27.30;48.10;26.20;100207.00;;;;5081021;28;20081;-67
2022/08/16 00:22:44;;;;;;;4.10;3.40;;;27.30;48.10;26.20;100209.00;;;;5077478;28;20324;-67
2022/08/16 00:25:30;;;;;;;4.70;3.30;;;27.30;48.10;26.20;100203.00;;;;5077489;28;20040;-67
2022/08/16 00:28:16;;;;;;;4.50;3.20;;;27.20;47.90;26.20;100215.00;;;;5086432;28;20130;-67
2022/08/16 00:31:02;;;;;;;4.45;3.58;;;27.20;47.90;26.20;100211.00;;;;5083921;28;20040;-67
2022/08/16 00:33:48;;;;;;;5.75;4.18;;;27.20;48.00;26.20;100209.00;;;;5071803;28;20477;-67
2022/08/16 00:36:35;;;;;;;6.38;4.00;;;27.20;48.70;26.20;100212.00;;;;5089395;28;20044;-67
2022/08/16 00:39:21;;;;;;;7.10;3.80;;;27.20;48.00;26.20;100207.00;;;;5089193;28;20508;-67
2022/08/16 00:42:07;;;;;;;6.60;3.60;;;27.20;48.00;26.20;100213.00;;;;5074240;28;20042;-67
2022/08/16 00:44:55;;;;;;;5.50;3.35;;;27.20;48.00;26.20;100209.00;;;;5088946;28;20534;-67
2022/08/16 00:47:44;;;;;;;4.53;2.92;;;27.20;48.00;26.20;100213.00;;;;5095736;28;20044;-67
2022/08/16 00:50:31;;;;;;;5.40;2.88;;;27.30;48.00;26.20;100216.00;;;;5058673;28;20154;-67
2022/08/16 00:53:18;;;;;;;4.18;2.88;;;27.30;48.00;26.20;100209.00;;;;5069794;28;20039;-67
2022/08/16 00:56:10;;;;;;;4.18;2.92;;;27.20;47.90;26.20;100214.00;;;;5076285;28;20039;-67
2022/08/16 00:58:56;;;;;;;4.80;3.13;;;27.20;47.90;26.20;100213.00;;;;5061690;28;20082;-66
2022/08/16 01:01:43;;;;;;;5.50;3.38;;;27.20;48.50;26.20;100215.00;;;;5080884;28;20044;-67
2022/08/16 01:04:29;;;;;;;7.05;3.20;;;27.20;47.90;26.20;100211.00;;;;5089486;28;20059;-67
2022/08/16 01:07:15;;;;;;;3.45;2.95;;;27.20;47.90;26.20;100213.00;;;;5096730;28;20290;-67
2022/08/16 01:10:01;;;;;;;4.05;3.33;;;27.20;47.90;26.20;100220.00;;;;5076232;28;20066;-67
2022/08/16 01:12:47;;;;;;;3.03;2.75;;;27.20;47.90;26.10;100218.00;;;;5075952;28;20058;-67
2022/08/16 01:15:36;;;;;;;5.55;3.33;;;27.20;47.90;26.10;100215.00;;;;5075817;28;20044;-67
2022/08/16 01:18:24;;;;;;;6.28;3.15;;;27.20;47.90;26.10;100221.00;;;;5063757;28;20377;-67
2022/08/16 01:21:22;;;;;;;6.18;3.78;;;27.20;47.90;26.10;100218.00;;;;5074832;28;20048;-67
2022/08/16 01:24:30;;;;;;;4.18;3.00;;;27.20;48.00;26.10;100224.00;;;;5064491;28;20051;-66
2022/08/16 01:27:30;;;;;;;4.85;2.80;;;27.20;47.90;26.10;100219.00;;;;5075189;28;20127;-67
2022/08/16 01:30:30;;;;;;;3.58;2.67;;;27.20;47.90;26.10;100224.00;;;;5076163;28;20040;-67
2022/08/16 01:33:16;;;;;;;3.78;2.78;;;27.20;47.90;26.10;100227.00;;;;5071561;28;20472;-67
2022/08/16 01:36:06;;;;;;;3.47;3.10;;;27.20;47.90;26.10;100225.00;;;;5088925;28;20448;-66
2022/08/16 01:38:52;;;;;;;4.70;3.10;;;27.20;47.90;26.10;100224.00;;;;5079475;28;20096;-67
2022/08/16 01:41:39;;;;;;;4.32;3.03;;;27.20;47.90;26.10;100221.00;;;;5070248;28;20104;-67
2022/08/16 01:44:25;;;;;;;3.47;3.13;;;27.20;47.90;26.10;100223.00;;;;5086891;28;20032;-67
2022/08/16 01:47:11;;;;;;;6.15;3.25;;;27.20;47.90;26.10;100230.00;;;;5089618;28;20088;-67
2022/08/16 01:49:57;;;;;;;6.28;3.05;;;27.20;47.90;26.10;100231.00;;;;5082192;28;20047;-67
2022/08/16 01:52:43;;;;;;;6.85;3.22;;;27.20;47.90;26.10;100230.00;;;;5100081;28;20035;-67
2022/08/16 01:55:29;;;;;;;3.97;3.10;;;27.20;47.90;26.10;100233.00;;;;5056082;28;20093;-66
2022/08/16 01:58:16;;;;;;;3.92;2.88;;;27.20;47.90;26.10;100228.00;;;;5095416;28;20083;-67
2022/08/16 02:01:02;;;;;;;4.93;3.00;;;27.20;47.90;26.10;100224.00;;;;5075538;28;20492;-67
2022/08/16 02:03:49;;;;;;;3.67;2.88;;;27.20;47.90;26.10;100233.00;;;;5064497;28;20100;-67
2022/08/16 02:06:35;;;;;;;4.20;2.97;;;27.10;47.90;26.10;100237.00;;;;5092002;28;20036;-67
2022/08/16 02:09:22;;;;;;;5.78;3.20;;;27.20;47.90;26.10;100227.00;;;;5081832;28;20401;-67
2022/08/16 02:12:08;;;;;;;5.82;3.03;;;27.20;47.90;26.10;100234.00;;;;5077573;28;20048;-67
2022/08/16 02:14:55;;;;;;;3.70;3.40;;;27.20;47.90;26.10;100228.00;;;;5076213;28;20055;-67
2022/08/16 02:17:42;;;;;;;4.60;3.67;;;27.30;48.00;26.10;100231.00;;;;5079376;28;20098;-67
2022/08/16 02:20:36;;;;;;;5.03;3.45;;;27.20;47.90;26.10;100224.00;;;;5093274;28;20128;-67
2022/08/16 02:23:22;;;;;;;4.97;3.17;;;27.20;47.90;26.10;100225.00;;;;5061609;28;20059;-67
2022/08/16 02:26:08;;;;;;;4.90;3.40;;;27.20;48.00;26.10;100222.00;;;;5093657;28;20046;-67
2022/08/16 02:28:55;;;;;;;4.78;3.58;;;27.20;47.90;26.10;100230.00;;;;5093044;28;20046;-67
2022/08/16 02:31:41;;;;;;;4.75;3.92;;;27.20;48.00;26.10;100231.00;;;;5092644;28;20474;-66
2022/08/16 02:34:27;;;;;;;5.00;3.65;;;27.20;48.00;26.10;100236.00;;;;5086071;28;20322;-67
2022/08/16 02:37:13;;;;;;;7.45;3.70;;;27.20;48.10;26.10;100232.00;;;;5092663;28;20040;-67
2022/08/16 02:40:00;;;;;;;5.53;3.22;;;27.20;48.10;26.10;100227.00;;;;5082940;28;20036;-67
2022/08/16 02:42:46;;;;;;;3.50;3.17;;;27.20;48.10;26.10;100229.00;;;;5079127;28;20478;-67
2022/08/16 02:45:33;;;;;;;3.17;2.88;;;27.20;48.10;26.10;100228.00;;;;5074155;28;20069;-66
2022/08/16 02:48:19;;;;;;;4.70;4.07;;;27.10;48.00;26.10;100235.00;;;;5095609;28;20047;-66
2022/08/16 02:51:06;;;;;;;4.45;3.25;;;27.20;48.10;26.10;100239.00;;;;5091273;28;20043;-67
2022/08/16 02:53:53;;;;;;;4.80;3.75;;;27.20;48.10;26.10;100238.00;;;;5085047;28;20499;-66
2022/08/16 02:56:39;;;;;;;4.68;3.03;;;27.10;48.10;26.10;100239.00;;;;5077386;28;20169;-66
2022/08/16 02:59:26;;;;;;;3.97;3.58;;;27.10;48.10;26.10;100242.00;;;;5072524;28;20032;-66
2022/08/16 03:02:12;;;;;;;5.07;3.50;;;27.20;48.10;26.10;100247.00;;;;5093379;28;20442;-66
2022/08/16 03:04:58;;;;;;;6.57;3.30;;;27.20;48.80;26.10;100243.00;;;;5085350;28;20314;-67
2022/08/16 03:07:44;;;;;;;5.68;3.17;;;27.10;48.00;26.10;100240.00;;;;5093649;28;20433;-67
2022/08/16 03:10:30;;;;;;;3.85;3.45;;;27.20;48.10;26.10;100238.00;;;;5087274;28;20055;-67
2022/08/16 03:13:17;;;;;;;4.20;3.55;;;27.10;48.00;26.10;100237.00;;;;5063481;28;20511;-67
2022/08/16 03:16:04;;;;;;;4.95;3.33;;;27.20;48.20;26.10;100235.00;;;;5078344;28;20136;-66
2022/08/16 03:18:50;;;;;;;7.03;3.70;;;27.10;48.10;26.10;100233.00;;;;5091318;28;20477;-67
2022/08/16 03:21:36;;;;;;;6.68;3.90;;;27.10;48.20;26.10;100237.00;;;;5090104;28;20435;-67
2022/08/16 03:24:23;;;;;;;6.05;4.30;;;27.10;48.20;26.10;100237.00;;;;5083313;28;20044;-67
2022/08/16 03:27:09;;;;;;;6.00;4.40;;;27.10;48.40;26.10;100235.00;;;;5092037;28;20048;-67
2022/08/16 03:29:55;;;;;;;4.63;4.18;;;27.20;48.50;26.10;100227.00;;;;5065087;28;20035;-67
2022/08/16 03:32:41;;;;;;;5.40;4.30;;;27.10;48.40;26.10;100236.00;;;;5093731;28;20032;-67
2022/08/16 03:35:29;;;;;;;6.38;4.47;;;27.20;48.50;26.10;100228.00;;;;5087129;28;20559;-67
2022/08/16 03:38:16;;;;;;;5.07;4.40;;;27.10;49.10;26.10;100225.00;;;;5077505;28;20612;-67
2022/08/16 03:41:04;;;;;;;4.72;3.60;;;27.10;48.40;26.10;100229.00;;;;5086960;28;20440;-67
2022/08/16 03:43:50;;;;;;;;;;;27.10;48.30;26.00;100234.00;;;;5091925;28;20042;-67
2022/08/16 03:46:36;;;;;;;4.68;3.70;;;27.20;48.30;26.00;100232.00;;;;5087097;28;19919;-67
2022/08/16 03:49:22;;;;;;;4.93;3.55;;;27.20;48.20;26.00;100243.00;;;;5071546;28;20408;-67
2022/08/16 03:52:08;;;;;;;5.97;3.90;;;27.20;48.20;26.00;100235.00;;;;5081795;28;20044;-67
2022/08/16 03:54:54;;;;;;;4.47;3.65;;;27.10;48.20;26.00;100227.00;;;;5088969;28;20048;-67
2022/08/16 03:57:40;;;;;;;5.07;3.88;;;27.20;48.20;26.00;100234.00;;;;5085231;28;20051;-67
2022/08/16 04:00:28;;;;;;;4.05;3.65;;;27.10;48.20;26.00;100232.00;;;;5080536;28;20051;-67
2022/08/16 04:03:14;;;;;;;4.95;3.65;;;27.10;48.30;26.00;100231.00;;;;5081319;28;20138;-67
2022/08/16 04:06:00;;;;;;;3.92;3.53;;;27.10;48.30;26.00;100231.00;;;;5084516;28;20071;-67
2022/08/16 04:08:47;;;;;;;6.65;4.40;;;27.10;48.40;26.00;100232.00;;;;5090242;28;20040;-67
2022/08/16 04:11:33;;;;;;;4.97;4.22;;;27.10;48.50;26.00;100231.00;;;;5090413;28;20063;-67
2022/08/16 04:14:19;;;;;;;4.80;4.30;;;27.10;48.40;26.00;100244.00;;;;5076801;28;20040;-67
2022/08/16 04:17:05;;;;;;;4.50;4.07;;;27.10;48.40;26.00;100243.00;;;;5086654;28;20040;-67
2022/08/16 04:19:51;;;;;;;5.22;4.50;;;27.00;48.40;26.00;100242.00;;;;5084791;28;20093;-67
2022/08/16 04:22:37;;;;;;;5.75;4.20;;;27.10;48.50;26.00;100239.00;;;;5087942;28;20331;-67
2022/08/16 04:25:24;;;;;;;6.50;3.73;;;27.10;49.10;26.00;100241.00;;;;5082732;28;20040;-67
2022/08/16 04:28:10;;;;;;;4.13;3.65;;;27.10;48.40;26.00;100244.00;;;;5074548;28;20039;-67
2022/08/16 04:30:56;;;;;;;6.20;4.05;;;27.20;48.40;26.00;100252.00;;;;5086150;28;20401;-67
2022/08/16 04:33:42;;;;;;;4.25;3.58;;;27.20;48.40;26.00;100248.00;;;;5084670;28;20047;-67
2022/08/16 04:36:28;;;;;;;5.00;3.72;;;27.10;48.30;26.00;100242.00;;;;5092297;28;20707;-67
2022/08/16 04:39:14;;;;;;;5.25;3.67;;;27.10;48.30;26.00;100246.00;;;;5071342;28;20036;-67
2022/08/16 04:42:00;;;;;;;5.47;3.53;;;27.10;48.20;26.00;100244.00;;;;5083569;28;20042;-67
2022/08/16 04:44:47;;;;;;;4.22;3.30;;;27.10;48.20;26.00;100252.00;;;;5072549;28;20478;-67
2022/08/16 04:47:34;;;;;;;4.23;3.57;;;27.10;48.20;26.00;100247.00;;;;5092239;28;20096;-67
2022/08/16 04:50:25;;;;;;;5.57;3.60;;;27.10;48.30;26.00;100243.00;;;;5067528;28;20043;-67
2022/08/16 04:53:11;;;;;;;4.63;3.92;;;27.10;48.30;26.00;100251.00;;;;5096711;28;20089;-67
2022/08/16 04:55:58;;;;;;;5.25;4.00;;;27.10;48.20;26.00;100251.00;;;;5083072;28;20444;-67
2022/08/16 04:58:45;;;;;;;3.88;3.53;;;27.10;48.30;26.00;100248.00;;;;5075199;28;20064;-67
2022/08/16 05:01:31;;;;;;;4.65;3.35;;;27.10;48.30;26.00;100255.00;;;;5092424;28;20038;-67
2022/08/16 05:04:17;;;;;;;5.45;3.58;;;27.10;48.30;26.00;100244.00;;;;5090160;28;20036;-67
2022/08/16 05:07:03;;;;;;;4.75;3.70;;;27.10;48.30;26.00;100251.00;;;;5089829;28;20054;-67
2022/08/16 05:09:49;;;;;;;3.72;3.30;;;27.10;48.30;26.00;100252.00;;;;5085618;28;20590;-67
2022/08/16 05:12:35;;;;;;;6.35;4.00;;;27.00;48.40;26.00;100262.00;;;;5097953;28;20052;-66
2022/08/16 05:15:22;;;;;;;3.72;3.20;;;27.10;48.40;26.00;100267.00;;;;5075979;28;20097;-66
2022/08/16 05:18:08;;;;;;;4.72;3.30;;;27.10;48.50;26.00;100270.00;;;;5090659;28;20059;-67
2022/08/16 05:20:55;;;;;;;4.15;3.55;;;27.00;48.40;26.00;100267.00;;;;5086846;28;20374;-67
2022/08/16 05:23:41;;;;;;;5.80;4.50;;;27.10;48.50;26.00;100269.00;;;;5072355;28;20048;-67
2022/08/16 05:26:28;;;;;;;5.68;4.00;;;27.10;48.60;26.00;100275.00;;;;5079118;28;20119;-66
2022/08/16 05:29:14;;;;;;;;;;;27.10;48.50;26.00;100271.00;;;;5069571;28;20040;-67
2022/08/16 05:32:04;;;;;;;4.65;3.80;;;27.10;48.50;26.00;100279.00;;;;5087517;28;20284;-67
2022/08/16 05:34:51;;;;;;;5.18;4.25;;;27.10;48.50;26.00;100269.00;;;;5086691;28;20050;-66
2022/08/16 05:37:38;;;;;;;6.93;4.18;;;27.10;48.50;26.00;100275.00;;;;5073267;28;20049;-67
2022/08/16 05:40:25;;;;;;;5.30;3.80;;;27.10;48.60;26.00;100278.00;;;;5057177;28;20179;-67
2022/08/16 05:43:11;;;;;;;6.70;4.22;;;27.10;48.70;26.00;100287.00;;;;5082796;28;20393;-67
2022/08/16 05:45:58;;;;;;;5.07;4.55;;;27.10;48.70;26.00;100279.00;;;;5076383;28;20047;-67
2022/08/16 05:48:45;;;;;;;5.32;4.82;;;27.10;48.80;26.00;100288.00;;;;5080008;28;20048;-66
2022/08/16 05:51:31;;;;;;;5.45;4.60;;;27.10;48.80;26.00;100291.00;;;;5091770;28;20050;-67
2022/08/16 05:54:17;;;;;;;6.07;4.57;;;27.10;49.50;26.00;100302.00;;;;5080683;28;20294;-66
2022/08/16 05:57:04;;;;;;;5.85;4.65;;;27.00;49.50;26.00;100300.00;;;;5090360;28;20054;-67
2022/08/16 05:59:50;;;;;;;5.13;4.63;;;27.10;48.90;26.00;100309.00;;;;5088344;28;20038;-66
2022/08/16 06:02:37;;;;;;;5.88;4.53;;;26.90;48.80;26.00;100301.00;;;;5077321;28;20090;-67
2022/08/16 06:05:23;;;;;;;5.05;4.55;;;27.10;49.00;26.00;100304.00;;;;5081830;28;20063;-67
2022/08/16 06:08:10;;;;;;;6.47;4.72;;;27.10;49.00;26.00;100310.00;;;;5081680;28;20051;-67
2022/08/16 06:10:58;;;;;;;5.18;4.63;;;27.10;48.90;26.00;100316.00;;;;5076726;28;20069;-66
2022/08/16 06:13:46;;;;;;;6.00;4.22;;;27.10;49.00;26.00;100321.00;;;;5091565;28;20040;-67
2022/08/16 06:16:32;;;;;;;5.93;4.85;;;27.10;49.10;26.00;100323.00;;;;5081237;28;20052;-67
2022/08/16 06:19:18;;;;;;;5.50;4.80;;;27.00;49.00;26.00;100319.00;;;;5065655;28;20138;-67
2022/08/16 06:22:04;;;;;;;6.05;5.07;;;27.00;49.00;26.00;100332.00;;;;5081749;28;20032;-67
2022/08/16 06:24:50;;;;;;;6.47;4.90;;;27.00;49.10;26.00;100340.00;;;;5081093;28;20038;-66
2022/08/16 06:27:38;;;;;;;5.63;4.85;;;27.10;49.20;26.00;100335.00;;;;5066068;28;20119;-67
2022/08/16 06:30:24;;;;;;;;;;;27.10;49.20;25.90;100332.00;;;;5075820;28;20130;-66
2022/08/16 06:33:14;;;;;;;5.72;4.25;;;27.10;49.00;25.90;100336.00;;;;5089379;28;19954;-67
2022/08/16 06:36:01;;;;;;;6.70;4.47;;;27.10;49.10;25.90;100326.00;;;;5066077;28;20035;-67
2022/08/16 06:38:47;;;;;;;5.60;4.13;;;27.10;49.20;26.00;100333.00;;;;5079547;28;20047;-66
2022/08/16 06:41:33;;;;;;;5.07;4.43;;;27.10;49.20;25.90;100339.00;;;;5075128;28;20094;-66
2022/08/16 06:44:19;;;;;;;7.28;5.65;;;27.10;49.30;25.90;100339.00;;;;5091719;28;20485;-66
2022/08/16 06:47:05;;;;;;;6.13;4.95;;;27.00;49.20;26.00;100340.00;;;;5090533;28;20050;-66
2022/08/16 06:49:51;;;;;;;7.38;4.88;;;27.00;49.30;25.90;100343.00;;;;5091636;28;20063;-67
2022/08/16 06:52:38;;;;;;;6.22;5.07;;;27.00;49.30;26.00;100340.00;;;;5081721;28;20465;-67
2022/08/16 06:55:24;;;;;;;7.75;5.45;;;27.10;49.40;26.00;100345.00;;;;5085407;28;20454;-67
2022/08/16 06:58:10;;;;;;;5.72;4.65;;;27.00;49.30;26.00;100342.00;;;;5096109;28;20073;-67
2022/08/16 07:00:56;;;;;;;7.55;5.47;;;27.00;49.40;26.00;100342.00;;;;5095021;28;20038;-67
2022/08/16 07:03:42;;;;;;;8.07;5.53;;;27.00;49.40;25.90;100342.00;;;;5089725;28;20036;-67
2022/08/16 07:06:30;;;;;;;7.95;5.30;;;27.00;49.50;25.90;100342.00;;;;5092179;28;20425;-67
2022/08/16 07:09:16;;;;;;;6.47;5.63;;;27.00;49.50;25.90;100348.00;;;;5062220;28;20051;-67
2022/08/16 07:12:02;;;;;;;9.25;6.40;;;27.10;49.50;25.90;100348.00;;;;5088450;28;20036;-67
2022/08/16 07:14:48;;;;;;;6.10;5.40;;;27.10;49.60;25.90;100354.00;;;;5087598;28;20047;-67
2022/08/16 07:17:35;;;;;;;7.03;5.68;;;27.00;49.50;25.90;100352.00;;;;5087692;28;20029;-67
2022/08/16 07:20:21;;;;;;;7.90;5.20;;;27.10;49.60;25.90;100341.00;;;;5075569;28;20043;-66
2022/08/16 07:23:08;;;;;;;6.10;5.50;;;27.00;49.60;25.90;100353.00;;;;5091207;28;20043;-66
2022/08/16 07:25:54;;;;;;;11.52;6.18;;;27.00;49.50;25.90;100362.00;;;;5090966;28;20035;-66
2022/08/16 07:28:40;;;;;;;7.13;5.57;;;27.00;49.50;25.90;100359.00;;;;5063544;28;20043;-66
2022/08/16 07:31:26;;;;;;;6.15;5.35;;;27.00;49.60;25.90;100361.00;;;;5093050;28;20040;-66
2022/08/16 07:34:12;;;;;;;8.45;5.97;;;27.10;49.60;25.90;100356.00;;;;5085515;28;20047;-66
2022/08/16 07:36:59;;;;;;;7.68;5.13;;;27.00;49.60;25.90;100355.00;;;;5091406;28;20040;-66
2022/08/16 07:39:45;;;;;;;6.28;5.65;;;27.00;49.60;25.90;100367.00;;;;5075751;28;20742;-67
2022/08/16 07:42:31;;;;;;;5.38;4.47;;;27.00;49.60;25.90;100361.00;;;;5089127;28;20032;-66
2022/08/16 07:45:18;;;;;;;7.03;4.78;;;27.00;49.50;25.90;100357.00;;;;5089590;28;20040;-66
2022/08/16 07:48:04;;;;;;;5.93;4.97;;;27.00;49.50;25.90;100359.00;;;;5082316;28;20114;-66
2022/08/16 07:50:50;;;;;;;5.78;4.72;;;27.00;49.60;25.90;100361.00;;;;5081631;28;20453;-66
2022/08/16 07:53:37;;;;;;;7.20;5.28;;;27.00;49.60;25.90;100364.00;;;;5094036;28;20447;-66
2022/08/16 07:56:23;;;;;;;6.43;4.53;;;27.00;49.60;25.90;100359.00;;;;5089765;28;20051;-66
2022/08/16 07:59:09;;;;;;;5.60;4.78;;;27.00;49.50;25.90;100359.00;;;;5085604;28;20044;-66
2022/08/16 08:01:56;;;;;;;5.80;4.55;;;27.00;49.50;25.90;100368.00;;;;5072504;28;20066;-66
2022/08/16 08:04:42;;;;;;;5.43;4.85;;;27.00;49.60;25.90;100372.00;;;;5075778;28;20043;-66
2022/08/16 08:07:28;;;;;;;6.80;4.78;;;27.00;49.50;25.90;100364.00;;;;5079679;28;20121;-66
2022/08/16 08:10:14;;;;;;;6.63;4.68;;;27.00;49.50;25.90;100365.00;;;;5083774;28;20501;-66
2022/08/16 08:13:01;;;;;;;5.55;4.13;;;27.00;49.50;25.90;100363.00;;;;5072235;28;20047;-67
2022/08/16 08:15:48;;;;;;;6.20;4.28;;;27.00;49.50;25.90;100371.00;;;;5073368;28;20379;-67
2022/08/16 08:18:35;;;;;;;7.32;4.80;;;27.00;49.50;25.90;100370.00;;;;5088541;28;20082;-67
2022/08/16 08:21:25;;;;;;;5.50;4.43;;;27.00;49.50;25.90;100370.00;;;;5084057;28;20039;-66
2022/08/16 08:24:11;;;;;;;6.25;4.35;;;27.00;49.50;25.90;100365.00;;;;5086130;28;20151;-66
2022/08/16 08:26:58;;;;;;;5.90;4.65;;;27.00;49.50;25.90;100369.00;;;;5090178;28;20039;-67
2022/08/16 08:29:44;;;;;;;5.55;4.05;;;27.00;49.50;25.90;100371.00;;;;5087949;28;20113;-67
2022/08/16 08:32:30;;;;;;;5.28;4.57;;;27.00;49.50;25.90;100371.00;;;;5089683;28;20047;-66
2022/08/16 08:35:16;;;;;;;11.25;4.72;;;27.00;49.50;25.90;100364.00;;;;5069673;28;20032;-66
2022/08/16 08:38:04;;;;;;;4.95;3.92;;;27.00;49.50;25.90;100374.00;;;;5090713;28;20039;-66
2022/08/16 08:40:50;;;;;;;5.28;4.20;;;27.00;49.50;25.90;100375.00;;;;5075620;28;20036;-66
2022/08/16 08:43:37;;;;;;;5.75;4.60;;;27.00;49.50;25.90;100376.00;;;;5089553;28;20039;-67
2022/08/16 08:46:24;;;;;;;7.50;4.07;;;27.00;49.50;25.90;100379.00;;;;5079285;28;20105;-66
2022/08/16 08:49:10;;;;;;;9.38;6.10;;;27.00;50.20;25.90;100383.00;;;;5073642;28;20054;-66
2022/08/16 08:51:57;;;;;;;4.30;3.78;;;27.10;49.60;25.90;100379.00;;;;5086957;28;20131;-66
2022/08/16 08:54:43;;;;;;;5.80;4.13;;;27.00;49.40;25.90;100380.00;;;;5086002;28;20441;-75
2022/08/16 08:57:29;;;;;;;7.47;4.30;;;26.90;49.40;25.90;100378.00;;;;5091031;28;20048;-66
2022/08/16 09:00:19;;;;;;;5.13;4.25;;;27.10;49.60;25.90;100378.00;;;;5081157;28;20045;-66
2022/08/16 09:03:05;;;;;;;5.05;4.05;;;27.10;49.60;25.90;100380.00;;;;5065791;28;20520;-66
2022/08/16 09:05:51;;;;;;;5.78;4.05;;;27.00;49.40;25.90;100380.00;;;;5085166;28;20036;-66
2022/08/16 09:08:38;;;;;;;4.50;3.88;;;27.10;49.60;25.90;100379.00;;;;5076351;28;20119;-72
2022/08/16 09:11:25;;;;;;;5.63;4.07;;;27.00;50.20;25.90;100386.00;;;;5086578;28;20045;-66
2022/08/16 09:14:11;;;;;;;7.20;3.97;;;27.00;49.50;25.90;100377.00;;;;5072846;28;20032;-63
2022/08/16 09:16:57;;;;;;;4.78;3.72;;;27.00;49.50;25.90;100379.00;;;;5087567;28;20516;-64
2022/08/16 09:19:43;;;;;;;5.55;4.43;;;27.00;49.50;25.90;100374.00;;;;5085101;28;20089;-64
2022/08/16 09:22:29;;;;;;;8.05;4.22;;;27.00;49.50;25.90;100377.00;;;;5094446;28;20036;-64
2022/08/16 09:25:15;;;;;;;6.60;4.22;;;27.00;49.50;25.90;100379.00;;;;5091399;28;20397;-64
2022/08/16 09:28:02;;;;;;;8.95;4.65;;;27.00;49.40;25.90;100381.00;;;;5080853;28;20036;-63
2022/08/16 09:30:48;;;;;;;5.80;4.15;;;27.00;49.40;25.90;100379.00;;;;5060835;28;20035;-64
2022/08/16 09:33:34;;;;;;;6.10;4.30;;;27.00;49.40;25.90;100381.00;;;;5093219;28;20071;-63
2022/08/16 09:36:21;;;;;;;10.00;4.65;;;27.00;49.50;25.90;100382.00;;;;5098610;28;20044;-64
2022/08/16 09:39:07;;;;;;;5.97;4.05;;;27.10;49.50;25.90;100378.00;;;;5079440;28;20040;-64
2022/08/16 09:41:55;;;;;;;4.65;3.90;;;27.10;49.50;25.90;100380.00;;;;5088502;28;20043;-64
2022/08/16 09:44:41;;;;;;;6.57;4.40;;;27.00;50.10;25.90;100378.00;;;;5076312;28;20090;-64
2022/08/16 09:47:27;;;;;;;8.52;4.70;;;27.00;49.50;25.90;100383.00;;;;5089101;28;20131;-64
2022/08/16 09:50:13;;;;;;;5.15;4.43;;;27.00;49.50;25.90;100382.00;;;;5089808;28;20043;-63
2022/08/16 09:52:59;;;;;;;5.03;4.10;;;27.00;49.40;25.90;100388.00;;;;5085069;28;20068;-64
2022/08/16 09:55:48;;;;;;;5.68;4.28;;;27.00;49.50;25.90;100392.00;;;;5078554;28;20033;-66
2022/08/16 09:58:35;;;;;;;5.40;4.07;;;27.00;49.40;25.90;100390.00;;;;5080563;28;20043;-66
2022/08/16 10:01:21;;;;;;;7.82;4.38;;;27.00;49.40;25.90;100390.00;;;;5092791;28;20032;-66
2022/08/16 10:04:07;;;;;;;4.60;4.10;;;27.10;49.50;25.90;100384.00;;;;5061984;28;20075;-66
2022/08/16 10:06:55;;;;;;;9.05;4.55;;;27.10;49.40;25.90;100385.00;;;;5080285;28;20443;-66
2022/08/16 10:09:42;;;;;;;6.35;3.97;;;27.10;49.30;26.00;100385.00;;;;5063120;28;20062;-65
2022/08/16 10:15:34;;;;;;;7.30;3.88;;;27.10;49.10;26.00;100383.00;;;;5091687;28;20071;-66
2022/08/16 10:18:21;;;;;;;5.75;4.68;;;27.10;49.00;26.00;100392.00;;;;5078005;28;20488;-65
2022/08/16 10:21:08;;;;;;;7.40;3.97;;;27.10;49.00;26.00;100390.00;;;;5086355;28;20398;-66
2022/08/16 10:23:54;;;;;;;10.60;4.35;;;27.00;48.80;26.00;100400.00;;;;5072051;28;20452;-66
2022/08/16 10:26:40;;;;;;;4.75;3.97;;;27.10;48.80;26.00;100392.00;;;;5093357;28;20415;-66
2022/08/16 10:29:26;;;;;;;8.48;3.97;;;27.10;48.70;26.00;100392.00;;;;5073064;28;20079;-66
2022/08/16 10:32:13;;;;;;;7.88;4.13;;;27.10;48.60;26.00;100393.00;;;;5079323;28;20047;-66
2022/08/16 10:35:00;;;;;;;5.65;3.90;;;27.10;48.60;26.00;100389.00;;;;5089269;28;20041;-66
2022/08/16 10:37:46;;;;;;;6.85;3.92;;;27.10;48.50;26.00;100388.00;;;;5093652;28;20097;-66
2022/08/16 10:40:32;;;;;;;9.57;4.35;;;27.10;48.40;26.00;100382.00;;;;5087019;28;20080;-66
2022/08/16 10:43:19;;;;;;;7.20;3.92;;;27.10;48.30;26.00;100386.00;;;;5083947;28;20051;-66
2022/08/16 10:46:07;;;;;;;5.47;3.55;;;27.10;48.00;26.00;100387.00;;;;5093628;28;20047;-66
2022/08/16 10:48:54;;;;;;;6.20;3.63;;;27.10;47.90;26.00;100393.00;;;;5091379;28;20043;-65
2022/08/16 10:51:40;;;;;;;5.38;3.80;;;27.20;48.00;26.00;100390.00;;;;5056903;28;20409;-66
2022/08/16 10:54:26;;;;;;;3.97;3.42;;;27.10;47.90;26.00;100393.00;;;;5079354;28;20075;-66
2022/08/16 10:57:13;;;;;;;5.28;3.58;;;27.20;47.90;26.00;100400.00;;;;5060602;28;20040;-66
2022/08/16 10:59:59;;;;;;;4.25;3.55;;;27.20;47.80;26.00;100397.00;;;;5087440;28;20031;-66
2022/08/16 11:02:46;;;;;;;7.95;3.83;;;27.20;47.70;26.10;100397.00;;;;5078311;28;20082;-66
2022/08/16 11:05:34;;;;;;;8.52;3.85;;;27.20;47.70;26.00;100402.00;;;;5086161;28;20044;-66
2022/08/16 11:08:21;;;;;;;7.75;3.72;;;27.20;47.60;26.10;100395.00;;;;5081465;28;20044;-66
2022/08/16 11:11:08;;;;;;;5.70;3.45;;;27.20;47.50;26.10;100398.00;;;;5092350;28;20122;-65
2022/08/16 11:13:54;;;;;;;4.20;3.50;;;27.20;47.40;26.10;100399.00;;;;5075862;28;20063;-66
2022/08/16 11:16:40;;;;;;;4.78;3.45;;;27.20;47.30;26.10;100402.00;;;;5094342;28;20059;-66
2022/08/16 11:19:28;;;;;;;5.95;3.63;;;27.20;47.30;26.10;100394.00;;;;5079887;28;20136;-66
2022/08/16 11:22:14;;;;;;;4.15;3.72;;;27.20;47.30;26.10;100396.00;;;;5089022;28;20038;-66
2022/08/16 11:25:00;;;;;;;3.60;3.30;;;27.20;47.30;26.10;100397.00;;;;5088645;28;20055;-66
2022/08/16 11:27:46;;;;;;;6.93;3.70;;;27.20;47.30;26.10;100394.00;;;;5092797;28;20332;-66
2022/08/16 11:30:32;;;;;;;7.50;3.75;;;27.20;47.50;26.10;100397.00;;;;5083726;28;20062;-66
2022/08/16 11:33:19;;;;;;;4.72;3.20;;;27.20;47.10;26.10;100400.00;;;;5089681;28;20039;-65
2022/08/16 11:36:05;;;;;;;5.55;3.67;;;27.20;47.10;26.10;100403.00;;;;5092474;28;20036;-66
2022/08/16 11:38:51;;;;;;;4.93;3.33;;;27.30;47.00;26.10;100405.00;;;;5093081;28;20043;-66
2022/08/16 11:41:37;;;;;;;7.50;4.10;;;27.20;47.00;26.10;100390.00;;;;5076442;28;20040;-66
2022/08/16 11:44:24;;;;;;;4.68;3.75;;;27.30;46.90;26.10;100402.00;;;;5066015;28;20066;-66
2022/08/16 11:47:10;;;;;;;4.97;3.60;;;27.30;46.90;26.10;100405.00;;;;5074147;28;20070;-66
2022/08/16 11:49:56;;;;;;;3.75;3.15;;;27.30;46.90;26.10;100404.00;;;;5090733;28;20405;-66
2022/08/16 11:52:42;;;;;;;5.15;3.70;;;27.30;46.80;26.10;100401.00;;;;5087394;28;20043;-66
2022/08/16 11:55:28;;;;;;;4.82;3.38;;;27.40;46.90;26.10;100411.00;;;;5073843;28;20048;-66
2022/08/16 11:58:14;;;;;;;5.03;3.40;;;27.30;46.70;26.20;100407.00;;;;5080662;28;20052;-66
2022/08/16 12:01:00;;;;;;;5.80;3.40;;;27.30;46.70;26.20;100410.00;;;;5090662;28;20040;-66
2022/08/16 12:03:46;;;;;;;4.55;3.38;;;27.30;46.70;26.20;100416.00;;;;5086953;28;20070;-66
2022/08/16 12:06:32;;;;;;;4.97;3.15;;;27.30;46.70;26.20;100409.00;;;;5074774;28;20500;-66
2022/08/16 12:09:18;;;;;;;4.57;3.60;;;27.30;46.80;26.20;100412.00;;;;5086697;28;20044;-65
2022/08/16 12:12:05;;;;;;;4.65;3.28;;;27.30;46.70;26.20;100399.00;;;;5094434;28;20066;-66
2022/08/16 12:14:51;;;;;;;3.85;3.10;;;27.40;46.80;26.20;100408.00;;;;5067783;28;20151;-65